»·PEaware :: DAL2295 KSLC-KSAN

DAL2295 :: KSLC-KSAN

FLIGHT INFORMATION

Flight Status: Arrived
Operator:
Delta Air Lines
More flights by this operator :: More flights under this callsign
Pilot: Joe P. (13940)
Aircraft: BOEING 737-700
(B737)
More flights by this aircraft type
Origin: KSLC Salt Lake City Intl
United States
Destination: KSAN San Diego Intl-Lindbergh
United States
More flights between these airports :: More routes between these airports
Route: +ZIONZ1 EHK LAKRR Q73 LVELL LUCKI1
File this flight plan on PilotEdge
Remarks: KLAX -PBN / A1B1C1D1L1O1S1 NAV / RNVD1E2A1 DOF / 180819 REG / N389DA EET / KZLA0031 RVR / 200 PER / C
Altitude:
(Current/Filed)
340ft
Speed:
(Current/Filed)
452kts
Departed: 19-Aug-18 06:35 AM
Arrived: 19-Aug-18 08:00 AM
Distance/Time
Traveled:
544nm/1:25
Distance/Time
To Go:
Arrived

Flight Plot

Page will automatically refresh every two minutes.

Flight plan parsing failed; only flown route is shown


Map Options




Map Legend


Flown Route
Filed Route
Departure Airport
Arrival Airport
Navaid (VOR, NDB)
Fix

Horizontal Profiles

Position Reports

Time Latitude Longitude Heading Altitude Ground
Speed
19-Aug-18 05:37 40.788528 -111.980747 282 4235ft 0kts
19-Aug-18 05:38 40.788528 -111.980747 282 4235ft 0kts
19-Aug-18 05:39 40.788528 -111.980747 282 4235ft 0kts
19-Aug-18 05:40 40.788528 -111.980747 282 4235ft 0kts
19-Aug-18 05:41 40.788528 -111.980747 282 4235ft 0kts
19-Aug-18 05:42 40.788528 -111.980747 282 4235ft 0kts
19-Aug-18 05:43 40.788528 -111.980747 282 4235ft 0kts
19-Aug-18 05:44 40.788528 -111.980747 282 4235ft 0kts
19-Aug-18 05:45 40.788528 -111.980747 282 4235ft 0kts
19-Aug-18 05:46 40.788528 -111.980747 282 4234ft 0kts
19-Aug-18 05:47 40.788528 -111.980747 282 4234ft 0kts
19-Aug-18 05:48 40.788528 -111.980747 282 4234ft 0kts
19-Aug-18 05:49 40.788528 -111.980747 282 4234ft 0kts
19-Aug-18 05:50 40.788528 -111.980747 282 4234ft 0kts
19-Aug-18 05:51 40.788528 -111.980747 282 4234ft 0kts
19-Aug-18 05:52 40.788528 -111.980747 282 4234ft 0kts
19-Aug-18 05:53 40.788528 -111.980747 282 4234ft 0kts
19-Aug-18 05:54 40.788528 -111.980747 282 4234ft 0kts
19-Aug-18 05:55 40.788528 -111.980747 282 4234ft 0kts
19-Aug-18 05:56 40.788528 -111.980747 282 4234ft 0kts
19-Aug-18 05:57 40.788528 -111.980747 282 4234ft 0kts
19-Aug-18 05:58 40.788528 -111.980747 282 4234ft 0kts
19-Aug-18 05:59 40.788528 -111.980747 282 4234ft 0kts
19-Aug-18 06:00 40.788528 -111.980747 282 4234ft 0kts
19-Aug-18 06:01 40.788528 -111.980747 282 4234ft 0kts
19-Aug-18 06:02 40.788528 -111.980747 282 4234ft 0kts
19-Aug-18 06:03 40.788528 -111.980747 282 4234ft 0kts
19-Aug-18 06:04 40.788528 -111.980747 282 4234ft 0kts
19-Aug-18 06:05 40.788528 -111.980747 282 4234ft 0kts
19-Aug-18 06:06 40.788528 -111.980747 282 4234ft 0kts
19-Aug-18 06:07 40.788528 -111.980747 282 4235ft 0kts
19-Aug-18 06:08 40.788528 -111.980747 282 4235ft 0kts
19-Aug-18 06:09 40.788528 -111.980747 282 4235ft 0kts
19-Aug-18 06:10 40.788528 -111.980747 282 4235ft 0kts
19-Aug-18 06:11 40.788528 -111.980747 282 4234ft 0kts
19-Aug-18 06:12 40.788528 -111.980747 282 4234ft 0kts
19-Aug-18 06:13 40.788528 -111.980747 282 4234ft 0kts
19-Aug-18 06:14 40.788528 -111.980747 282 4234ft 0kts
19-Aug-18 06:15 40.788528 -111.980747 282 4234ft 0kts
19-Aug-18 06:16 40.788528 -111.980747 282 4234ft 0kts
19-Aug-18 06:17 40.788528 -111.980747 282 4234ft 0kts
19-Aug-18 06:18 40.788528 -111.980747 282 4234ft 0kts
19-Aug-18 06:19 40.788528 -111.980747 282 4234ft 0kts
19-Aug-18 06:20 40.788528 -111.980747 282 4234ft 0kts
19-Aug-18 06:21 40.788528 -111.980747 282 4234ft 0kts
19-Aug-18 06:22 40.788528 -111.980747 282 4234ft 0kts
19-Aug-18 06:23 40.788528 -111.980747 282 4234ft 0kts
19-Aug-18 06:24 40.788528 -111.980747 282 4234ft 0kts
19-Aug-18 06:25 40.788435 -111.980195 282 4234ft 2kts
19-Aug-18 06:26 40.788333 -111.979591 282 4234ft 0kts
19-Aug-18 06:27 40.788333 -111.979591 282 4234ft 0kts
19-Aug-18 06:28 40.788333 -111.979591 282 4234ft 0kts
19-Aug-18 06:29 40.788333 -111.979592 282 4234ft 0kts
19-Aug-18 06:30 40.789992 -111.979773 25 4234ft 16kts
19-Aug-18 06:31 40.794880 -111.977718 356 4234ft 19kts
19-Aug-18 06:32 40.800296 -111.978391 358 4234ft 19kts
19-Aug-18 06:33 40.805853 -111.979018 354 4234ft 17kts
19-Aug-18 06:34 40.807461 -111.977477 117 4234ft 7kts
19-Aug-18 06:35 40.806930 -111.976816 172 4234ft 0kts
19-Aug-18 06:36 40.778186 -111.973655 174 4893ft 167kts
19-Aug-18 06:37 40.725283 -111.970201 176 6752ft 232kts
19-Aug-18 06:38 40.650723 -111.965269 176 8612ft 292kts
19-Aug-18 06:39 40.565900 -111.959388 177 11095ft 328kts
19-Aug-18 06:40 40.464660 -111.952214 178 12446ft 392kts
19-Aug-18 06:41 40.353401 -111.944542 178 14904ft 407kts
19-Aug-18 06:42 40.238909 -111.942824 189 17233ft 416kts
19-Aug-18 06:43 40.122209 -111.961701 189 19207ft 430kts
19-Aug-18 06:44 40.001578 -111.979301 189 21029ft 442kts
19-Aug-18 06:45 39.877800 -111.997338 189 22666ft 453kts
19-Aug-18 06:46 39.750926 -112.015857 190 24123ft 463kts
19-Aug-18 06:47 39.621541 -112.034656 190 25447ft 473kts
19-Aug-18 06:48 39.489108 -112.053769 190 26644ft 482kts
19-Aug-18 06:49 39.354756 -112.072959 190 27746ft 490kts
19-Aug-18 06:50 39.217824 -112.092327 190 28775ft 497kts
19-Aug-18 06:51 39.087196 -112.138084 212 30069ft 481kts
19-Aug-18 06:52 38.971434 -112.221986 215 31537ft 474kts
19-Aug-18 06:53 38.857144 -112.305198 215 32972ft 469kts
19-Aug-18 06:54 38.743916 -112.387436 215 34296ft 466kts
19-Aug-18 06:55 38.630488 -112.469344 215 34340ft 465kts
19-Aug-18 06:56 38.517656 -112.550427 215 34343ft 465kts
19-Aug-18 06:57 38.404913 -112.631131 215 34340ft 465kts
19-Aug-18 06:58 38.291711 -112.711865 215 34338ft 465kts
19-Aug-18 06:59 38.178981 -112.791978 214 34342ft 465kts
19-Aug-18 07:00 38.066242 -112.871839 214 34349ft 464kts
19-Aug-18 07:01 37.953482 -112.951587 214 34351ft 464kts
19-Aug-18 07:02 37.840460 -113.030931 213 34346ft 464kts
19-Aug-18 07:03 37.728207 -113.111304 214 34339ft 462kts
19-Aug-18 07:04 37.616927 -113.192630 214 34334ft 462kts
19-Aug-18 07:05 37.505526 -113.273676 214 34313ft 462kts
19-Aug-18 07:06 37.394260 -113.354785 214 34269ft 462kts
19-Aug-18 07:07 37.282995 -113.435473 214 34213ft 462kts
19-Aug-18 07:08 37.171307 -113.516117 214 34158ft 462kts
19-Aug-18 07:09 37.059871 -113.596280 214 34124ft 462kts
19-Aug-18 07:10 36.948069 -113.676430 214 34127ft 463kts
19-Aug-18 07:11 36.836336 -113.756258 213 34124ft 462kts
19-Aug-18 07:12 36.724832 -113.835653 213 34125ft 462kts
19-Aug-18 07:13 36.612988 -113.915026 213 34128ft 462kts
19-Aug-18 07:14 36.501270 -113.994047 213 34100ft 462kts
19-Aug-18 07:15 36.389258 -114.073013 213 34084ft 461kts
19-Aug-18 07:16 36.277674 -114.151609 213 34075ft 461kts
19-Aug-18 07:17 36.166032 -114.229701 213 34052ft 461kts
19-Aug-18 07:18 36.061805 -114.320080 229 34032ft 453kts
19-Aug-18 07:19 35.977430 -114.435245 231 34027ft 452kts
19-Aug-18 07:20 35.893400 -114.551159 231 34023ft 453kts
19-Aug-18 07:21 35.809669 -114.667129 231 34013ft 453kts
19-Aug-18 07:22 35.725449 -114.782556 230 34011ft 453kts
19-Aug-18 07:23 35.641217 -114.897790 230 34012ft 453kts
19-Aug-18 07:24 35.556981 -115.012847 230 34018ft 453kts
19-Aug-18 07:25 35.453868 -115.101018 203 34013ft 463kts
19-Aug-18 07:26 35.331967 -115.153026 201 33997ft 463kts
19-Aug-18 07:27 35.210035 -115.203824 201 33988ft 463kts
19-Aug-18 07:28 35.087793 -115.254747 201 33973ft 463kts
19-Aug-18 07:29 34.965694 -115.305376 201 33966ft 464kts
19-Aug-18 07:30 34.843012 -115.356045 200 33975ft 464kts
19-Aug-18 07:31 34.720736 -115.406376 200 33989ft 464kts
19-Aug-18 07:32 34.598484 -115.456539 200 34004ft 464kts
19-Aug-18 07:33 34.476204 -115.506642 200 34018ft 463kts
19-Aug-18 07:34 34.354228 -115.556387 200 34032ft 463kts
19-Aug-18 07:35 34.231657 -115.606163 200 34024ft 463kts
19-Aug-18 07:36 34.111313 -115.661386 203 34005ft 463kts
19-Aug-18 07:37 33.991729 -115.718011 202 33452ft 460kts
19-Aug-18 07:38 33.872194 -115.775204 202 30728ft 459kts
19-Aug-18 07:39 33.755822 -115.832087 201 28604ft 446kts
19-Aug-18 07:40 33.641310 -115.885589 201 26526ft 436kts
19-Aug-18 07:41 33.530861 -115.941477 214 24491ft 428kts
19-Aug-18 07:42 33.454822 -116.048378 235 22424ft 421kts
19-Aug-18 07:43 33.388338 -116.162828 234 20414ft 414kts
19-Aug-18 07:44 33.312634 -116.262515 210 18457ft 401kts
19-Aug-18 07:45 33.214160 -116.322619 204 16280ft 394kts
19-Aug-18 07:46 33.117147 -116.379128 204 14247ft 374kts
19-Aug-18 07:47 33.027907 -116.431126 204 12399ft 345kts
19-Aug-18 07:48 32.952217 -116.497145 219 11074ft 323kts
19-Aug-18 07:49 32.887793 -116.562941 219 10140ft 284kts
19-Aug-18 07:50 32.831003 -116.620191 220 8903ft 263kts
19-Aug-18 07:51 32.779193 -116.672901 226 8079ft 231kts
19-Aug-18 07:52 32.746275 -116.735734 242 7170ft 223kts
19-Aug-18 07:53 32.716418 -116.799197 241 6266ft 216kts
19-Aug-18 07:54 32.692954 -116.863958 251 5296ft 212kts
19-Aug-18 07:55 32.674052 -116.928896 258 4326ft 206kts
19-Aug-18 07:56 32.684517 -116.991761 288 3425ft 178kts
19-Aug-18 07:57 32.698360 -117.045103 286 2564ft 165kts
19-Aug-18 07:58 32.710673 -117.095280 286 1711ft 151kts
19-Aug-18 07:59 32.722064 -117.142253 285 1151ft 149kts
19-Aug-18 08:00 32.734967 -117.195147 281 23ft 115kts
19-Aug-18 08:01 32.736135 -117.202087 199 23ft 0kts
19-Aug-18 08:02 32.736134 -117.202087 199 23ft 0kts
19-Aug-18 08:03 32.736133 -117.202088 199 23ft 0kts
19-Aug-18 08:04 32.734884 -117.199774 143 23ft 14kts
19-Aug-18 08:05 32.732537 -117.199484 183 23ft 4kts
19-Aug-18 08:06 32.732336 -117.199502 184 23ft 0kts
19-Aug-18 08:07 32.732336 -117.199502 184 23ft 0kts
19-Aug-18 08:08 32.732336 -117.199502 184 23ft 0kts
19-Aug-18 08:09 32.732336 -117.199502 184 23ft 0kts
19-Aug-18 08:10 32.732336 -117.199502 184 23ft 0kts
19-Aug-18 08:11 32.732336 -117.199502 184 23ft 0kts
19-Aug-18 08:12 32.732336 -117.199502 184 23ft 0kts
19-Aug-18 08:13 32.732336 -117.199502 184 23ft 0kts
19-Aug-18 08:14 32.732336 -117.199502 184 23ft 0kts
19-Aug-18 08:15 32.732336 -117.199502 184 23ft 0kts

Navigation Log

Ident Type
Flight plan parsing failed, navigation log unavailable